Time;durP1;ratioP1;P1;durP2;ratioP2;P2;SDS_P1;SDS_P2;PMS_P1;PMS_P2;Temp;Humidity;BMP_temperature;BMP_pressure;BME280_temperature;BME280_humidity;BME280_pressure;Samples;Min_cycle;Max_cycle;Signal;HPM_P1;HPM_P2
2023/09/26 00:01:07;;;;;;;;;;;23.90;61.90;;;;;;5086669;28;42837;-78
2023/09/26 00:03:32;;;;;;;;;;;23.90;62.50;;;;;;5086462;28;42917;-79
2023/09/26 00:05:58;;;;;;;;;;;23.90;62.50;;;;;;5086126;28;42855;-78
2023/09/26 00:08:23;;;;;;;;;;;24.00;62.50;;;;;;5086158;28;43519;-78
2023/09/26 00:10:49;;;;;;;;;;;23.80;61.80;;;;;;5086057;28;43008;-78
2023/09/26 00:13:15;;;;;;;;;;;23.80;62.60;;;;;;5084602;28;43991;-78
2023/09/26 00:15:41;;;;;;;;;;;23.90;62.00;;;;;;5086286;28;42954;-78
2023/09/26 00:18:06;;;;;;;;;;;23.90;62.40;;;;;;5084489;28;42997;-78
2023/09/26 00:20:35;;;;;;;;;;;23.90;62.60;;;;;;5086490;28;42899;-78
2023/09/26 00:23:01;;;;;;;;;;;24.00;62.60;;;;;;5084356;28;44627;-79
2023/09/26 00:25:26;;;;;;;;;;;24.00;62.50;;;;;;5086698;28;43171;-79
2023/09/26 00:27:52;;;;;;;;;;;24.00;62.40;;;;;;5087135;28;43604;-79
2023/09/26 00:30:19;;;;;;;;;;;24.00;62.70;;;;;;5086909;28;43002;-79
2023/09/26 00:32:44;;;;;;;;;;;23.90;62.60;;;;;;5086178;28;42930;-79
2023/09/26 00:35:13;;;;;;;;;;;23.90;62.20;;;;;;5085816;28;42934;-78
2023/09/26 00:37:47;;;;;;;;;;;24.00;61.80;;;;;;5084771;27;43517;-78
2023/09/26 00:40:18;;;;;;;;;;;23.90;60.50;;;;;;5085902;28;43044;-79
2023/09/26 00:42:47;;;;;;;;;;;24.00;61.60;;;;;;5082514;28;43516;-78
2023/09/26 00:45:13;;;;;;;;;;;23.80;60.50;;;;;;5086292;27;43227;-79
2023/09/26 00:47:39;;;;;;;;;;;23.90;63.10;;;;;;5085831;28;43004;-78
2023/09/26 00:50:09;;;;;;;;;;;24.00;63.20;;;;;;5086197;28;42808;-79
2023/09/26 00:52:35;;;;;;;;;;;24.00;62.50;;;;;;5086051;28;43603;-79
2023/09/26 00:55:03;;;;;;;;;;;23.70;62.90;;;;;;5086112;28;42932;-79
2023/09/26 00:57:31;;;;;;;;;;;23.80;62.50;;;;;;5085678;28;42888;-78
2023/09/26 00:59:56;;;;;;;;;;;23.90;62.50;;;;;;5085678;28;42892;-79
2023/09/26 01:02:22;;;;;;;;;;;23.80;62.40;;;;;;5118002;27;44153;-78
2023/09/26 01:04:48;;;;;;;;;;;23.70;63.10;;;;;;5083521;28;43038;-79
2023/09/26 01:07:14;;;;;;;;;;;23.90;63.20;;;;;;5084813;28;43379;-79
2023/09/26 01:09:39;;;;;;;;;;;23.80;62.50;;;;;;5085302;28;42989;-79
2023/09/26 01:12:05;;;;;;;;;;;23.80;63.00;;;;;;5085021;28;43003;-79
2023/09/26 01:14:31;;;;;;;;;;;23.80;62.70;;;;;;5084829;28;43132;-78
2023/09/26 01:16:57;;;;;;;;;;;23.90;62.60;;;;;;5084837;28;42993;-79
2023/09/26 01:19:22;;;;;;;;;;;23.80;63.00;;;;;;5085213;28;43073;-79
2023/09/26 01:21:48;;;;;;;;;;;23.90;62.60;;;;;;5081884;28;43004;-78
2023/09/26 01:24:15;;;;;;;;;;;23.80;62.40;;;;;;5083855;28;43005;-79
2023/09/26 01:26:41;;;;;;;;;;;23.90;62.90;;;;;;5084302;28;43261;-79
2023/09/26 01:29:07;;;;;;;;;;;23.80;62.90;;;;;;5085090;28;42890;-78
2023/09/26 01:31:35;;;;;;;;;;;23.70;62.90;;;;;;5083807;28;43032;-79
2023/09/26 01:34:02;;;;;;;;;;;24.00;60.90;;;;;;5083022;28;42950;-79
2023/09/26 01:36:28;;;;;;;;;;;23.70;62.60;;;;;;5083632;28;42889;-79
2023/09/26 01:38:54;;;;;;;;;;;23.70;63.10;;;;;;5117946;27;42910;-79
2023/09/26 01:41:22;;;;;;;;;;;23.70;63.20;;;;;;5084701;28;43785;-79
2023/09/26 01:43:49;;;;;;;;;;;23.60;63.00;;;;;;5084031;28;42775;-79
2023/09/26 01:46:14;;;;;;;;;;;23.80;63.00;;;;;;5083970;28;43766;-79
2023/09/26 01:48:40;;;;;;;;;;;23.70;62.90;;;;;;5083360;28;43092;-79
2023/09/26 01:51:06;;;;;;;;;;;23.80;62.80;;;;;;5083918;28;42986;-79
2023/09/26 01:53:31;;;;;;;;;;;24.00;63.60;;;;;;5084390;28;43242;-79
2023/09/26 01:56:00;;;;;;;;;;;23.70;62.20;;;;;;5083515;28;43459;-79
2023/09/26 01:58:26;;;;;;;;;;;23.70;60.50;;;;;;5084422;28;42886;-79
2023/09/26 02:00:51;;;;;;;;;;;23.70;62.90;;;;;;5083725;28;43671;-79
2023/09/26 02:03:17;;;;;;;;;;;23.70;63.00;;;;;;5084267;28;42936;-78
2023/09/26 02:05:42;;;;;;;;;;;23.70;62.70;;;;;;5083808;28;42870;-79
2023/09/26 02:08:08;;;;;;;;;;;23.60;62.40;;;;;;5084485;28;42892;-79
2023/09/26 02:10:33;;;;;;;;;;;23.90;62.70;;;;;;5082427;28;43636;-79
2023/09/26 02:12:59;;;;;;;;;;;23.70;62.60;;;;;;5083655;28;42792;-79
2023/09/26 02:15:25;;;;;;;;;;;23.70;62.20;;;;;;5082621;28;43552;-79
2023/09/26 02:17:51;;;;;;;;;;;23.90;62.80;;;;;;5083732;28;42945;-79
2023/09/26 02:20:17;;;;;;;;;;;24.10;62.90;;;;;;5084171;28;43850;-79
2023/09/26 02:22:44;;;;;;;;;;;23.90;62.90;;;;;;5084686;28;42906;-79
2023/09/26 02:25:12;;;;;;;;;;;23.60;63.00;;;;;;5084346;28;43029;-79
2023/09/26 02:27:38;;;;;;;;;;;23.80;62.80;;;;;;5082271;28;42964;-79
2023/09/26 02:30:05;;;;;;;;;;;23.50;62.70;;;;;;5083559;27;42793;-79
2023/09/26 02:32:33;;;;;;;;;;;23.70;62.10;;;;;;5083765;28;42960;-79
2023/09/26 02:34:59;;;;;;;;;;;23.70;60.40;;;;;;5079327;28;43064;-79
2023/09/26 02:37:24;;;;;;;;;;;23.80;62.40;;;;;;5083047;28;42893;-79
2023/09/26 02:39:50;;;;;;;;;;;23.70;62.90;;;;;;5083951;28;42911;-79
2023/09/26 02:42:15;;;;;;;;;;;23.60;62.30;;;;;;5083826;28;42841;-79
2023/09/26 02:44:41;;;;;;;;;;;23.70;62.90;;;;;;5082859;28;43096;-78
2023/09/26 02:47:06;;;;;;;;;;;23.70;63.50;;;;;;5083715;28;43009;-79
2023/09/26 02:49:32;;;;;;;;;;;23.70;62.30;;;;;;5084023;28;43929;-79
2023/09/26 02:51:57;;;;;;;;;;;23.90;62.40;;;;;;5084102;28;42957;-78
2023/09/26 02:54:23;;;;;;;;;;;23.80;62.90;;;;;;5083436;28;43650;-79
2023/09/26 02:56:48;;;;;;;;;;;23.60;62.90;;;;;;5083338;28;42971;-79
2023/09/26 02:59:14;;;;;;;;;;;23.70;62.80;;;;;;5065226;28;45625;-79
2023/09/26 03:01:40;;;;;;;;;;;23.80;62.40;;;;;;5086085;28;42964;-79
2023/09/26 03:04:05;;;;;;;;;;;23.90;63.10;;;;;;5078484;28;42988;-79
2023/09/26 03:06:31;;;;;;;;;;;23.70;62.70;;;;;;5066681;28;42965;-79
2023/09/26 03:08:56;;;;;;;;;;;23.50;62.80;;;;;;5065251;28;43437;-79
2023/09/26 03:11:22;;;;;;;;;;;23.20;62.30;;;;;;5065855;28;42918;-79
2023/09/26 03:13:47;;;;;;;;;;;23.60;62.70;;;;;;5066230;28;43575;-79
2023/09/26 03:16:14;;;;;;;;;;;23.70;62.30;;;;;;5048169;28;42916;-79
2023/09/26 03:18:40;;;;;;;;;;;23.50;62.70;;;;;;5064350;28;43461;-79
2023/09/26 03:21:06;;;;;;;;;;;23.70;62.80;;;;;;5065277;28;42866;-78
2023/09/26 03:23:31;;;;;;;;;;;23.80;62.70;;;;;;5066757;28;43805;-79
2023/09/26 03:25:57;;;;;;;;;;;23.70;62.10;;;;;;5064088;28;42906;-78
2023/09/26 03:28:23;;;;;;;;;;;23.60;62.70;;;;;;5063946;28;43307;-78
2023/09/26 03:30:48;;;;;;;;;;;23.80;62.80;;;;;;5063245;28;43061;-80
2023/09/26 03:33:14;;;;;;;;;;;23.70;62.80;;;;;;5064802;28;43531;-79
2023/09/26 03:35:39;;;;;;;;;;;23.60;62.40;;;;;;5071487;27;42885;-79
2023/09/26 03:38:05;;;;;;;;;;;23.60;63.00;;;;;;5085823;28;42913;-79
2023/09/26 03:40:31;;;;;;;;;;;23.60;63.10;;;;;;5086528;28;42896;-79
2023/09/26 03:42:56;;;;;;;;;;;23.60;63.20;;;;;;5086212;28;42935;-79
2023/09/26 03:45:22;;;;;;;;;;;23.60;63.50;;;;;;5085239;28;42942;-79
2023/09/26 03:47:48;;;;;;;;;;;23.50;63.50;;;;;;5086256;28;43021;-79
2023/09/26 03:50:14;;;;;;;;;;;23.90;63.30;;;;;;5086267;28;43090;-79
2023/09/26 03:52:39;;;;;;;;;;;23.50;63.50;;;;;;5086408;28;42885;-78
2023/09/26 03:55:05;;;;;;;;;;;23.60;63.50;;;;;;5085973;28;43331;-79
2023/09/26 03:57:31;;;;;;;;;;;23.70;63.60;;;;;;5085863;28;44717;-79
2023/09/26 03:59:57;;;;;;;;;;;23.40;63.60;;;;;;5084844;28;43055;-79
2023/09/26 04:02:22;;;;;;;;;;;23.70;63.50;;;;;;5084752;28;43919;-78
2023/09/26 04:04:48;;;;;;;;;;;23.70;63.40;;;;;;5086194;28;42961;-79
2023/09/26 04:07:13;;;;;;;;;;;23.50;62.80;;;;;;5085605;28;42972;-79
2023/09/26 04:09:39;;;;;;;;;;;23.50;63.60;;;;;;5086434;28;42907;-79
2023/09/26 04:12:05;;;;;;;;;;;23.50;63.60;;;;;;5071089;28;43703;-79
2023/09/26 04:14:30;;;;;;;;;;;23.40;62.90;;;;;;5078690;28;44926;-77
2023/09/26 04:16:56;;;;;;;;;;;23.60;63.20;;;;;;5084487;28;43608;-76
2023/09/26 04:19:22;;;;;;;;;;;23.40;63.50;;;;;;5081773;27;42957;-78
2023/09/26 04:21:47;;;;;;;;;;;23.30;63.00;;;;;;5085137;28;42967;-77
2023/09/26 04:24:13;;;;;;;;;;;23.50;63.60;;;;;;5084667;27;42992;-78
2023/09/26 04:26:38;;;;;;;;;;;23.40;63.40;;;;;;5085342;28;43625;-79
2023/09/26 04:29:05;;;;;;;;;;;24.30;64.30;;;;;;5081069;28;42910;-79
2023/09/26 04:31:30;;;;;;;;;;;23.40;62.90;;;;;;5085029;28;43160;-78
2023/09/26 04:33:56;;;;;;;;;;;23.50;62.90;;;;;;5086094;28;42787;-78
2023/09/26 04:36:22;;;;;;;;;;;23.40;63.30;;;;;;5083837;28;44213;-78
2023/09/26 04:38:48;;;;;;;;;;;23.40;63.40;;;;;;5084439;28;43011;-77
2023/09/26 04:41:13;;;;;;;;;;;23.50;63.50;;;;;;5082617;28;42929;-79
2023/09/26 04:43:39;;;;;;;;;;;23.70;63.10;;;;;;5084698;28;43056;-79
2023/09/26 04:46:11;;;;;;;;;;;23.50;63.90;;;;;;5085056;28;42995;-78
2023/09/26 04:48:37;;;;;;;;;;;23.40;61.40;;;;;;5083556;28;42957;-81
2023/09/26 04:51:06;;;;;;;;;;;23.10;62.70;;;;;;5079062;28;44807;-80
2023/09/26 04:53:31;;;;;;;;;;;23.40;63.90;;;;;;5084326;28;43102;-79
2023/09/26 04:55:57;;;;;;;;;;;23.50;63.80;;;;;;5084518;28;42974;-79
2023/09/26 04:58:22;;;;;;;;;;;23.50;63.60;;;;;;5084085;28;43051;-81
2023/09/26 05:00:48;;;;;;;;;;;23.50;63.30;;;;;;5084942;28;42943;-80
2023/09/26 05:03:14;;;;;;;;;;;23.50;63.10;;;;;;5084798;28;43103;-79
2023/09/26 05:05:39;;;;;;;;;;;23.50;63.70;;;;;;5084421;28;44041;-80
2023/09/26 05:08:05;;;;;;;;;;;23.40;63.60;;;;;;5085214;28;42988;-80
2023/09/26 05:10:31;;;;;;;;;;;23.60;63.70;;;;;;5084937;28;43437;-83
2023/09/26 05:12:56;;;;;;;;;;;23.70;63.80;;;;;;5081856;28;43007;-78
2023/09/26 05:15:22;;;;;;;;;;;23.60;63.80;;;;;;5083454;28;42976;-77
2023/09/26 05:17:49;;;;;;;;;;;23.60;63.30;;;;;;5084161;28;42914;-79
2023/09/26 05:20:15;;;;;;;;;;;23.40;63.60;;;;;;5085014;28;42932;-77
2023/09/26 05:22:41;;;;;;;;;;;23.30;63.10;;;;;;5096709;27;42919;-78
2023/09/26 05:25:07;;;;;;;;;;;23.30;63.70;;;;;;5085778;27;43059;-77
2023/09/26 05:27:33;;;;;;;;;;;23.40;65.10;;;;;;5084142;28;42950;-77
2023/09/26 05:29:59;;;;;;;;;;;23.40;65.50;;;;;;5084710;27;44410;-78
2023/09/26 05:32:25;;;;;;;;;;;23.50;65.60;;;;;;5087312;27;42929;-79
2023/09/26 05:34:50;;;;;;;;;;;23.40;65.60;;;;;;5084299;28;43433;-79
2023/09/26 05:37:16;;;;;;;;;;;23.20;65.40;;;;;;5084916;28;42840;-79
2023/09/26 05:39:42;;;;;;;;;;;23.30;65.20;;;;;;5084853;28;42965;-80
2023/09/26 05:42:10;;;;;;;;;;;23.40;65.10;;;;;;5084153;28;42977;-78
2023/09/26 05:44:36;;;;;;;;;;;23.90;64.90;;;;;;5082830;28;44374;-80
2023/09/26 05:47:01;;;;;;;;;;;23.30;64.20;;;;;;5084776;28;42879;-78
2023/09/26 05:49:27;;;;;;;;;;;23.30;64.40;;;;;;5084359;28;43685;-78
2023/09/26 05:51:52;;;;;;;;;;;23.20;64.20;;;;;;5084428;28;42952;-78
2023/09/26 05:54:18;;;;;;;;;;;23.30;64.30;;;;;;5084429;28;43391;-78
2023/09/26 05:56:44;;;;;;;;;;;23.20;64.50;;;;;;5085172;28;42986;-78
2023/09/26 05:59:10;;;;;;;;;;;23.30;64.50;;;;;;5083854;28;42893;-78
2023/09/26 06:01:35;;;;;;;;;;;23.20;65.60;;;;;;5082806;28;43020;-79
2023/09/26 06:04:01;;;;;;;;;;;23.30;65.40;;;;;;5084257;28;43001;-78
2023/09/26 06:06:26;;;;;;;;;;;23.30;66.10;;;;;;5084780;28;42889;-77
2023/09/26 06:08:52;;;;;;;;;;;23.30;66.30;;;;;;5084429;28;42998;-78
2023/09/26 06:11:17;;;;;;;;;;;23.10;66.40;;;;;;5082252;28;43049;-78
2023/09/26 06:13:44;;;;;;;;;;;23.20;65.60;;;;;;5084138;28;43652;-78
2023/09/26 06:16:10;;;;;;;;;;;23.30;65.90;;;;;;5084346;28;43017;-78
2023/09/26 06:18:35;;;;;;;;;;;22.90;65.30;;;;;;5084479;28;43701;-79
2023/09/26 06:21:05;;;;;;;;;;;23.30;65.90;;;;;;5083641;28;42911;-78
2023/09/26 06:23:33;;;;;;;;;;;23.40;64.10;;;;;;5084372;28;42986;-77
2023/09/26 06:26:00;;;;;;;;;;;23.70;64.20;;;;;;5083807;28;42883;-78
2023/09/26 06:28:26;;;;;;;;;;;23.30;66.20;;;;;;5083629;28;43512;-80
2023/09/26 06:30:51;;;;;;;;;;;23.60;66.20;;;;;;5082886;28;42994;-80
2023/09/26 06:33:17;;;;;;;;;;;23.30;66.30;;;;;;5083838;28;42898;-79
2023/09/26 06:35:42;;;;;;;;;;;23.30;66.40;;;;;;5085498;27;42917;-79
2023/09/26 06:38:08;;;;;;;;;;;23.30;66.00;;;;;;5087150;28;42851;-80
2023/09/26 06:40:33;;;;;;;;;;;23.30;66.40;;;;;;5086473;28;42958;-79
2023/09/26 06:43:00;;;;;;;;;;;23.30;66.00;;;;;;5086876;28;43380;-79
2023/09/26 06:45:27;;;;;;;;;;;23.20;66.60;;;;;;5087334;28;42946;-79
2023/09/26 06:47:53;;;;;;;;;;;23.20;66.60;;;;;;5087753;28;42818;-79
2023/09/26 06:50:19;;;;;;;;;;;23.30;66.50;;;;;;5087523;28;42966;-79
2023/09/26 06:52:44;;;;;;;;;;;23.10;67.00;;;;;;5086754;28;43024;-79
2023/09/26 06:55:10;;;;;;;;;;;23.30;66.60;;;;;;5087367;28;42957;-79
2023/09/26 06:57:38;;;;;;;;;;;23.40;66.40;;;;;;5085759;28;42773;-80
2023/09/26 07:00:11;;;;;;;;;;;23.40;64.30;;;;;;5086886;28;42919;-79
2023/09/26 07:02:37;;;;;;;;;;;23.40;66.80;;;;;;5085868;28;44834;-79
2023/09/26 07:05:02;;;;;;;;;;;23.20;67.20;;;;;;5087149;28;43036;-79
2023/09/26 07:07:31;;;;;;;;;;;24.20;68.10;;;;;;5086875;28;42950;-78
2023/09/26 07:09:57;;;;;;;;;;;23.20;67.80;;;;;;5086523;28;42987;-79
2023/09/26 07:12:26;;;;;;;;;;;23.40;67.80;;;;;;5086421;28;43471;-79
2023/09/26 07:14:56;;;;;;;;;;;23.50;67.40;;;;;;5086564;28;42870;-79
2023/09/26 07:17:22;;;;;;;;;;;23.30;67.40;;;;;;5085915;28;42994;-78
2023/09/26 07:19:48;;;;;;;;;;;23.30;67.50;;;;;;5086326;28;43070;-79
2023/09/26 07:22:14;;;;;;;;;;;23.40;67.00;;;;;;5086296;28;42989;-79
2023/09/26 07:24:40;;;;;;;;;;;23.30;67.80;;;;;;5086663;28;42803;-79
2023/09/26 07:27:06;;;;;;;;;;;22.50;66.50;;;;;;5086212;28;42959;-78
2023/09/26 07:29:32;;;;;;;;;;;23.30;67.00;;;;;;5086815;28;43086;-78
2023/09/26 07:31:58;;;;;;;;;;;23.30;67.70;;;;;;5086466;28;42839;-79
2023/09/26 07:34:23;;;;;;;;;;;23.50;68.20;;;;;;5086730;28;42864;-78
2023/09/26 07:36:49;;;;;;;;;;;23.50;67.60;;;;;;5087020;28;42937;-78
2023/09/26 07:39:16;;;;;;;;;;;23.40;68.20;;;;;;5084518;28;43130;-79
2023/09/26 07:41:41;;;;;;;;;;;23.30;68.10;;;;;;5085199;28;43542;-79
2023/09/26 07:44:07;;;;;;;;;;;23.40;67.70;;;;;;5086155;28;42942;-78
2023/09/26 07:46:32;;;;;;;;;;;23.40;68.20;;;;;;5085710;27;43023;-79
2023/09/26 07:48:58;;;;;;;;;;;23.40;67.60;;;;;;5086633;28;42873;-78
2023/09/26 07:51:23;;;;;;;;;;;23.40;68.20;;;;;;5085742;28;42926;-79
2023/09/26 07:53:49;;;;;;;;;;;23.30;67.60;;;;;;5086500;28;42914;-78
2023/09/26 07:56:14;;;;;;;;;;;23.40;68.30;;;;;;5085406;28;43874;-79
2023/09/26 07:58:40;;;;;;;;;;;23.40;68.10;;;;;;5086839;28;42985;-79
2023/09/26 08:01:09;;;;;;;;;;;23.40;67.50;;;;;;5086500;28;44497;-79
2023/09/26 08:03:38;;;;;;;;;;;23.40;66.40;;;;;;5085489;28;43149;-79
2023/09/26 08:06:04;;;;;;;;;;;23.40;68.20;;;;;;5085985;28;42774;-79
2023/09/26 08:08:30;;;;;;;;;;;23.50;67.60;;;;;;5085494;28;43037;-79
2023/09/26 08:10:56;;;;;;;;;;;23.50;67.70;;;;;;5085050;28;44411;-80
2023/09/26 08:13:22;;;;;;;;;;;23.40;68.10;;;;;;5086277;28;43025;-79
2023/09/26 08:15:48;;;;;;;;;;;23.40;67.90;;;;;;5085690;28;42941;-78
2023/09/26 08:18:13;;;;;;;;;;;23.70;68.60;;;;;;5085812;28;42913;-79
2023/09/26 08:20:39;;;;;;;;;;;23.30;66.90;;;;;;5084955;28;43824;-79
2023/09/26 08:23:05;;;;;;;;;;;23.40;67.30;;;;;;5086202;28;42916;-80
2023/09/26 08:25:32;;;;;;;;;;;23.50;66.50;;;;;;5085668;28;42820;-78
2023/09/26 08:27:58;;;;;;;;;;;23.40;66.50;;;;;;5085315;28;43008;-79
2023/09/26 08:30:23;;;;;;;;;;;23.50;66.00;;;;;;5085167;28;42969;-79
2023/09/26 08:32:49;;;;;;;;;;;23.40;65.50;;;;;;5084701;28;42942;-79
2023/09/26 08:35:14;;;;;;;;;;;23.50;65.50;;;;;;5085173;27;43587;-79
2023/09/26 08:37:40;;;;;;;;;;;23.50;65.30;;;;;;5085756;28;42917;-79
2023/09/26 08:40:09;;;;;;;;;;;23.60;66.00;;;;;;5085902;28;43805;-79
2023/09/26 08:42:37;;;;;;;;;;;23.80;64.80;;;;;;5085159;28;42873;-79
2023/09/26 08:45:03;;;;;;;;;;;23.40;62.90;;;;;;5084243;28;44844;-79
2023/09/26 08:47:29;;;;;;;;;;;23.60;64.40;;;;;;5085098;28;42973;-79
2023/09/26 08:49:56;;;;;;;;;;;23.50;64.80;;;;;;5085384;28;43717;-79
2023/09/26 08:52:22;;;;;;;;;;;23.50;64.70;;;;;;5085123;28;43000;-79
2023/09/26 08:54:48;;;;;;;;;;;23.50;64.70;;;;;;5085137;28;43393;-78
2023/09/26 08:57:14;;;;;;;;;;;23.50;64.80;;;;;;5083700;27;42897;-80
2023/09/26 08:59:40;;;;;;;;;;;23.60;64.80;;;;;;5084760;28;43410;-78
2023/09/26 09:02:05;;;;;;;;;;;23.60;64.50;;;;;;5085755;28;42915;-78
2023/09/26 09:04:31;;;;;;;;;;;23.50;64.30;;;;;;5084298;28;43601;-79
2023/09/26 09:07:02;;;;;;;;;;;23.40;64.00;;;;;;5084947;28;42863;-79
2023/09/26 09:09:28;;;;;;;;;;;23.50;61.90;;;;;;5084811;28;43490;-80
2023/09/26 09:11:53;;;;;;;;;;;23.60;64.30;;;;;;5083759;28;42978;-79
2023/09/26 09:14:32;;;;;;;;;;;23.60;64.30;;;;;;5084946;28;43039;-78
2023/09/26 09:16:58;;;;;;;;;;;23.40;61.90;;;;;;5084662;28;43655;-78
2023/09/26 09:19:43;;;;;;;;;;;23.40;64.00;;;;;;5084351;28;43444;-79
2023/09/26 09:22:17;;;;;;;;;;;23.60;61.90;;;;;;5084733;27;42852;-79
2023/09/26 09:24:43;;;;;;;;;;;23.50;62.00;;;;;;5085084;28;42949;-79
2023/09/26 09:27:09;;;;;;;;;;;23.50;64.30;;;;;;5084227;28;42992;-78
2023/09/26 09:29:35;;;;;;;;;;;23.50;64.10;;;;;;5085063;28;43574;-79
2023/09/26 09:32:01;;;;;;;;;;;23.50;64.10;;;;;;5085104;28;42994;-78
2023/09/26 09:34:27;;;;;;;;;;;23.60;64.10;;;;;;5084284;28;43073;-78
2023/09/26 09:36:56;;;;;;;;;;;23.70;64.10;;;;;;5083526;28;43162;-78
2023/09/26 09:39:22;;;;;;;;;;;23.60;61.70;;;;;;5084588;28;43065;-79
2023/09/26 09:41:48;;;;;;;;;;;24.00;63.80;;;;;;5084067;28;42729;-79
2023/09/26 09:44:14;;;;;;;;;;;23.50;63.90;;;;;;5084072;28;43456;-78
2023/09/26 09:46:39;;;;;;;;;;;23.50;64.20;;;;;;5084293;28;42970;-79
2023/09/26 09:49:18;;;;;;;;;;;23.60;63.40;;;;;;5082192;28;42995;-79
2023/09/26 09:51:46;;;;;;;;;;;23.60;64.20;;;;;;5084407;28;43068;-79
2023/09/26 09:54:17;;;;;;;;;;;23.70;64.20;;;;;;5084627;28;42929;-79
2023/09/26 09:56:49;;;;;;;;;;;23.50;63.50;;;;;;5115332;27;42888;-79
2023/09/26 09:59:16;;;;;;;;;;;23.60;63.50;;;;;;5084325;28;43316;-80
2023/09/26 10:01:44;;;;;;;;;;;23.50;63.60;;;;;;5084499;28;42980;-79
2023/09/26 10:04:10;;;;;;;;;;;23.60;63.20;;;;;;5084811;28;42974;-79
2023/09/26 10:06:36;;;;;;;;;;;23.50;63.60;;;;;;5085018;28;42933;-80
2023/09/26 10:09:03;;;;;;;;;;;23.60;63.50;;;;;;5084981;27;43265;-80
2023/09/26 10:11:29;;;;;;;;;;;23.50;63.30;;;;;;5087507;28;42890;-79
2023/09/26 10:13:57;;;;;;;;;;;23.50;63.40;;;;;;5087681;28;43407;-78
2023/09/26 10:16:24;;;;;;;;;;;23.40;63.20;;;;;;5087239;28;42954;-78
2023/09/26 10:18:49;;;;;;;;;;;23.70;63.60;;;;;;5088186;28;43468;-79
2023/09/26 10:21:25;;;;;;;;;;;24.30;63.40;;;;;;5087875;28;43128;-79
2023/09/26 10:24:12;;;;;;;;;;;23.60;61.20;;;;;;5086796;28;44579;-78
2023/09/26 10:26:38;;;;;;;;;;;23.70;62.90;;;;;;5083476;27;42950;-79
2023/09/26 10:29:11;;;;;;;;;;;23.70;62.90;;;;;;5087271;28;43573;-79
2023/09/26 10:31:38;;;;;;;;;;;23.60;61.70;;;;;;5088033;28;42981;-79
2023/09/26 10:34:05;;;;;;;;;;;23.90;63.30;;;;;;5087266;28;43384;-79
2023/09/26 10:36:31;;;;;;;;;;;23.80;63.20;;;;;;5087306;28;43044;-79
2023/09/26 10:38:57;;;;;;;;;;;23.80;63.10;;;;;;5087216;28;43918;-80
2023/09/26 10:41:23;;;;;;;;;;;24.10;63.10;;;;;;5086775;28;42845;-78
2023/09/26 10:43:49;;;;;;;;;;;23.90;62.90;;;;;;5086743;28;43465;-79
2023/09/26 10:46:14;;;;;;;;;;;23.80;62.80;;;;;;5087823;28;43117;-79
2023/09/26 10:48:40;;;;;;;;;;;23.80;62.90;;;;;;5086393;28;42907;-79
2023/09/26 10:51:06;;;;;;;;;;;23.90;62.80;;;;;;5086947;28;42904;-80
2023/09/26 10:53:32;;;;;;;;;;;24.00;63.00;;;;;;5087291;28;42857;-80
2023/09/26 10:55:57;;;;;;;;;;;23.80;63.10;;;;;;5086314;28;42763;-80
2023/09/26 10:58:23;;;;;;;;;;;23.60;62.40;;;;;;5087163;28;43713;-80
2023/09/26 11:00:49;;;;;;;;;;;23.60;63.10;;;;;;5087219;28;42896;-82
2023/09/26 11:03:15;;;;;;;;;;;24.00;63.00;;;;;;5087056;28;43719;-82
2023/09/26 11:05:40;;;;;;;;;;;23.80;62.40;;;;;;5086078;28;43010;-81
2023/09/26 11:08:06;;;;;;;;;;;23.70;63.10;;;;;;5086720;28;43651;-81
2023/09/26 11:10:31;;;;;;;;;;;23.70;63.70;;;;;;5086992;28;42956;-81
2023/09/26 11:12:57;;;;;;;;;;;23.60;63.20;;;;;;5087003;28;43774;-81
2023/09/26 11:15:25;;;;;;;;;;;23.70;62.70;;;;;;5086766;28;43201;-81
2023/09/26 11:17:50;;;;;;;;;;;23.90;63.40;;;;;;5086998;28;42923;-81
2023/09/26 11:20:16;;;;;;;;;;;23.70;62.80;;;;;;5086524;27;42994;-82
2023/09/26 11:22:45;;;;;;;;;;;23.60;62.90;;;;;;5086166;28;42939;-82
2023/09/26 11:25:11;;;;;;;;;;;23.80;61.00;;;;;;5086194;28;42854;-81
2023/09/26 11:27:37;;;;;;;;;;;23.80;63.20;;;;;;5086558;28;43404;-82
2023/09/26 11:30:03;;;;;;;;;;;23.90;63.40;;;;;;5086283;28;42942;-82
2023/09/26 11:32:28;;;;;;;;;;;23.60;62.90;;;;;;5086241;27;43931;-82
2023/09/26 11:34:54;;;;;;;;;;;23.60;63.30;;;;;;5086471;28;43033;-82
2023/09/26 11:37:21;;;;;;;;;;;23.60;63.00;;;;;;5087020;27;42972;-81
2023/09/26 11:39:51;;;;;;;;;;;23.60;63.30;;;;;;5085606;28;43010;-82
2023/09/26 11:42:17;;;;;;;;;;;23.70;61.10;;;;;;5083951;28;44533;-81
2023/09/26 11:44:54;;;;;;;;;;;23.70;63.10;;;;;;5086029;28;43101;-81
2023/09/26 11:47:27;;;;;;;;;;;23.70;60.90;;;;;;5085821;28;43623;-80
2023/09/26 11:49:52;;;;;;;;;;;23.80;61.10;;;;;;5085995;28;42899;-82
2023/09/26 11:52:18;;;;;;;;;;;23.70;63.20;;;;;;5085549;28;43780;-82
2023/09/26 11:54:44;;;;;;;;;;;23.80;63.20;;;;;;5086154;28;42989;-81
2023/09/26 11:57:12;;;;;;;;;;;23.70;62.60;;;;;;5085728;28;42842;-81
2023/09/26 11:59:38;;;;;;;;;;;23.70;61.00;;;;;;5084939;28;42760;-82
2023/09/26 12:02:04;;;;;;;;;;;23.70;63.70;;;;;;5085596;28;43626;-82
2023/09/26 12:04:31;;;;;;;;;;;23.70;63.10;;;;;;5085688;28;43013;-81
2023/09/26 12:06:56;;;;;;;;;;;23.70;63.80;;;;;;5082469;28;43397;-82
2023/09/26 12:09:22;;;;;;;;;;;22.70;62.40;;;;;;5085757;28;43491;-81
2023/09/26 12:11:48;;;;;;;;;;;23.80;63.70;;;;;;5085556;28;43784;-82
2023/09/26 12:14:15;;;;;;;;;;;23.70;63.70;;;;;;5085311;27;42973;-82
2023/09/26 12:16:42;;;;;;;;;;;23.70;63.70;;;;;;5087437;27;43469;-82
2023/09/26 12:19:08;;;;;;;;;;;23.60;63.80;;;;;;5084710;28;43007;-81
2023/09/26 12:21:34;;;;;;;;;;;23.80;62.90;;;;;;5085432;27;43461;-81
2023/09/26 12:23:59;;;;;;;;;;;23.80;63.80;;;;;;5095430;27;42950;-81
2023/09/26 12:26:25;;;;;;;;;;;23.80;63.80;;;;;;5088281;27;42977;-81
2023/09/26 12:28:50;;;;;;;;;;;23.80;63.70;;;;;;5094624;27;42955;-81
2023/09/26 12:31:16;;;;;;;;;;;23.90;63.70;;;;;;5096167;27;43451;-82
2023/09/26 12:33:41;;;;;;;;;;;24.00;64.00;;;;;;5094477;27;43021;-81
2023/09/26 12:36:07;;;;;;;;;;;23.80;64.00;;;;;;5089945;27;42980;-81
2023/09/26 12:38:32;;;;;;;;;;;23.90;63.90;;;;;;5094761;27;43036;-80
2023/09/26 12:40:58;;;;;;;;;;;23.90;63.70;;;;;;5095591;27;43348;-83
2023/09/26 12:43:23;;;;;;;;;;;23.70;63.90;;;;;;5095182;27;42956;-82
2023/09/26 12:45:49;;;;;;;;;;;23.70;64.20;;;;;;5096525;27;42886;-80
2023/09/26 12:48:14;;;;;;;;;;;23.90;63.80;;;;;;5092660;27;43092;-82
2023/09/26 12:50:40;;;;;;;;;;;23.70;63.70;;;;;;5084142;28;45824;-82
2023/09/26 12:53:05;;;;;;;;;;;23.90;64.50;;;;;;5084672;28;42993;-82
2023/09/26 12:55:31;;;;;;;;;;;23.70;64.50;;;;;;5084214;27;44050;-82
2023/09/26 12:57:57;;;;;;;;;;;23.80;64.80;;;;;;5085362;28;42860;-81
2023/09/26 13:00:23;;;;;;;;;;;23.90;64.70;;;;;;5085778;28;42931;-82
2023/09/26 13:02:48;;;;;;;;;;;24.00;64.90;;;;;;5084564;27;42738;-82
2023/09/26 13:05:14;;;;;;;;;;;23.90;64.60;;;;;;5080227;28;43670;-82
2023/09/26 13:07:40;;;;;;;;;;;23.80;64.50;;;;;;5076342;27;43004;-78
2023/09/26 13:10:07;;;;;;;;;;;23.90;64.50;;;;;;5084946;28;43769;-82
2023/09/26 13:12:34;;;;;;;;;;;24.00;62.30;;;;;;5082352;28;42921;-82
2023/09/26 13:15:00;;;;;;;;;;;24.10;64.80;;;;;;5081748;28;42798;-82
2023/09/26 13:17:25;;;;;;;;;;;24.70;64.60;;;;;;5084719;27;42934;-81
2023/09/26 13:19:51;;;;;;;;;;;23.90;64.50;;;;;;5084709;28;43521;-82
2023/09/26 13:22:16;;;;;;;;;;;23.90;63.80;;;;;;5084538;28;42835;-83
2023/09/26 13:24:42;;;;;;;;;;;23.90;64.30;;;;;;5084011;28;43173;-82
2023/09/26 13:27:08;;;;;;;;;;;23.80;64.40;;;;;;5083793;28;42877;-80
2023/09/26 13:29:33;;;;;;;;;;;23.90;64.10;;;;;;5084647;28;42937;-82
2023/09/26 13:31:59;;;;;;;;;;;24.00;64.80;;;;;;5084033;28;43362;-81
2023/09/26 13:34:25;;;;;;;;;;;23.90;64.90;;;;;;5084958;28;42774;-81
2023/09/26 13:36:50;;;;;;;;;;;23.90;64.30;;;;;;5084925;28;42839;-82
2023/09/26 13:39:16;;;;;;;;;;;24.00;65.10;;;;;;5084522;28;43808;-81
2023/09/26 13:41:41;;;;;;;;;;;23.80;64.30;;;;;;5084396;28;42898;-81
2023/09/26 13:44:07;;;;;;;;;;;23.80;64.40;;;;;;5083637;28;42956;-83
2023/09/26 13:46:33;;;;;;;;;;;24.00;64.30;;;;;;5085398;28;43096;-81
2023/09/26 13:48:59;;;;;;;;;;;24.00;64.70;;;;;;5084537;28;42987;-82
2023/09/26 13:51:25;;;;;;;;;;;24.00;64.70;;;;;;5084195;28;43100;-81
2023/09/26 13:53:50;;;;;;;;;;;24.00;64.40;;;;;;5084156;28;42902;-81
2023/09/26 13:56:16;;;;;;;;;;;23.90;64.60;;;;;;5084152;28;42954;-81
2023/09/26 13:58:41;;;;;;;;;;;24.00;64.40;;;;;;5083749;28;43007;-82
2023/09/26 14:01:08;;;;;;;;;;;24.00;64.60;;;;;;5085077;28;42970;-83
2023/09/26 14:03:33;;;;;;;;;;;24.00;64.10;;;;;;5084071;28;42792;-82
2023/09/26 14:05:59;;;;;;;;;;;23.90;64.60;;;;;;5084104;27;42874;-81
2023/09/26 14:08:25;;;;;;;;;;;23.80;64.70;;;;;;5084316;28;42977;-81
2023/09/26 14:10:50;;;;;;;;;;;24.00;64.70;;;;;;5084188;28;43282;-82